createdAt,value
2019-05-05T00:00:14.521Z,90.70
2019-05-05T00:03:00.667Z,90.90
2019-05-05T00:05:36.536Z,90.80
2019-05-05T00:08:05.241Z,90.90
2019-05-05T00:10:35.240Z,90.80
2019-05-05T00:13:10.816Z,90.60
2019-05-05T00:15:57.092Z,90.40
2019-05-05T00:18:26.990Z,90.40
2019-05-05T00:20:55.303Z,90.40
2019-05-05T00:23:25.090Z,90.40
2019-05-05T00:25:55.243Z,90.50
2019-05-05T00:28:24.844Z,90.70
2019-05-05T00:30:55.327Z,90.80
2019-05-05T00:33:24.911Z,90.70
2019-05-05T00:35:54.513Z,90.50
2019-05-05T00:38:24.811Z,90.40
2019-05-05T00:40:54.837Z,90.50
2019-05-05T00:43:25.092Z,90.50
2019-05-05T00:45:55.656Z,90.50
2019-05-05T00:48:25.713Z,90.40
2019-05-05T00:50:55.610Z,90.70
2019-05-05T00:53:25.069Z,90.50
2019-05-05T00:55:54.694Z,90.50
2019-05-05T00:58:24.729Z,90.30
2019-05-05T01:01:11.309Z,90.50
2019-05-05T01:03:39.603Z,90.70
2019-05-05T01:06:12.499Z,90.90
2019-05-05T01:08:40.764Z,91.00
2019-05-05T01:11:09.078Z,91.20
2019-05-05T01:13:37.375Z,91.50
2019-05-05T01:16:05.687Z,91.60
2019-05-05T01:18:35.195Z,91.70
2019-05-05T01:21:04.517Z,91.90
2019-05-05T01:23:34.993Z,91.70
2019-05-05T01:26:05.041Z,91.80
2019-05-05T01:28:35.362Z,91.70
2019-05-05T01:31:05.635Z,91.70
2019-05-05T01:33:35.683Z,91.90
2019-05-05T01:36:04.659Z,92.00
2019-05-05T01:38:44.706Z,92.10
2019-05-05T01:41:20.736Z,92.10
2019-05-05T01:43:48.984Z,91.90
2019-05-05T01:46:17.282Z,91.60
2019-05-05T01:48:45.584Z,91.70
2019-05-05T01:51:14.329Z,91.90
2019-05-05T01:53:44.295Z,91.90
2019-05-05T01:56:12.680Z,91.60
2019-05-05T01:58:40.916Z,91.80
2019-05-05T02:01:09.176Z,92.10
2019-05-05T02:03:37.410Z,91.60
2019-05-05T02:06:05.657Z,91.50
2019-05-05T02:08:34.849Z,91.50
2019-05-05T02:11:05.143Z,91.40
2019-05-05T02:13:34.616Z,91.30
2019-05-05T02:16:04.569Z,91.20
2019-05-05T02:18:34.529Z,91.20
2019-05-05T02:21:06.331Z,91.20
2019-05-05T02:23:35.338Z,91.00
2019-05-05T02:26:04.753Z,91.10
2019-05-05T02:28:34.753Z,91.00
2019-05-05T02:31:05.574Z,91.00
2019-05-05T02:33:35.385Z,90.70
2019-05-05T02:36:05.594Z,90.50
2019-05-05T02:38:35.550Z,90.90
2019-05-05T02:41:05.049Z,90.80
2019-05-05T02:43:34.479Z,91.00
2019-05-05T02:46:05.840Z,90.90
2019-05-05T02:48:35.487Z,90.80
2019-05-05T02:51:06.658Z,90.50
2019-05-05T02:53:36.930Z,90.50
2019-05-05T02:56:06.897Z,90.30
2019-05-05T02:58:37.438Z,90.30
2019-05-05T03:01:24.443Z,90.40
2019-05-05T03:03:54.256Z,90.80
2019-05-05T03:06:23.801Z,90.90
2019-05-05T03:08:54.127Z,91.10
2019-05-05T03:11:23.704Z,90.90
2019-05-05T03:13:53.532Z,90.80
2019-05-05T03:16:23.740Z,90.90
2019-05-05T03:18:54.360Z,90.90
2019-05-05T03:21:24.154Z,91.00
2019-05-05T03:23:52.121Z,91.00
2019-05-05T03:26:20.458Z,90.80
2019-05-05T03:28:50.352Z,90.70
2019-05-05T03:31:18.963Z,90.70
2019-05-05T03:33:47.223Z,90.70
2019-05-05T03:36:15.462Z,90.80
2019-05-05T03:38:44.526Z,90.90
2019-05-05T03:41:17.381Z,90.60
2019-05-05T03:44:04.740Z,90.90
2019-05-05T03:46:34.451Z,90.80
2019-05-05T03:49:04.676Z,90.80
2019-05-05T03:51:34.546Z,90.80
2019-05-05T03:54:04.326Z,90.80
2019-05-05T03:56:34.640Z,90.90
2019-05-05T03:59:04.701Z,91.00
2019-05-05T04:01:38.064Z,91.00
2019-05-05T04:04:25.960Z,91.00
2019-05-05T04:06:55.828Z,90.40
2019-05-05T04:09:24.374Z,90.40
2019-05-05T04:11:53.995Z,90.30
2019-05-05T04:14:24.734Z,90.40
2019-05-05T04:17:10.377Z,90.90
2019-05-05T04:19:43.669Z,90.30
2019-05-05T04:22:13.561Z,90.40
2019-05-05T04:24:43.597Z,90.40
2019-05-05T04:27:12.039Z,90.60
2019-05-05T04:29:40.281Z,90.80
2019-05-05T04:32:08.580Z,90.90
2019-05-05T04:34:36.836Z,90.80
2019-05-05T04:37:05.091Z,90.40
2019-05-05T04:39:34.365Z,90.40
2019-05-05T04:42:04.713Z,90.70
2019-05-05T04:44:34.640Z,90.40
2019-05-05T04:47:16.685Z,90.30
2019-05-05T04:49:55.192Z,90.50
2019-05-05T04:52:27.743Z,90.40
2019-05-05T04:54:56.261Z,90.60
2019-05-05T04:57:24.511Z,90.40
2019-05-05T04:59:54.009Z,90.40
2019-05-05T05:02:34.097Z,90.20
2019-05-05T05:05:07.132Z,90.50
2019-05-05T05:07:35.402Z,90.50
2019-05-05T05:10:07.563Z,90.40
2019-05-05T05:12:35.880Z,90.30
2019-05-05T05:15:04.904Z,90.40
2019-05-05T05:17:34.783Z,89.70
2019-05-05T05:20:04.762Z,90.10
2019-05-05T05:22:33.517Z,90.10
2019-05-05T05:25:04.298Z,89.80
2019-05-05T05:27:33.573Z,89.80
2019-05-05T05:30:02.015Z,90.10
2019-05-05T05:32:30.249Z,90.10
2019-05-05T05:34:58.508Z,90.20
2019-05-05T05:37:26.770Z,90.10
2019-05-05T05:39:56.628Z,90.00
2019-05-05T05:42:24.894Z,90.10
2019-05-05T05:44:57.538Z,90.00
2019-05-05T05:47:44.176Z,88.60
2019-05-05T05:50:14.351Z,89.20
2019-05-05T05:52:43.646Z,89.30
2019-05-05T05:55:11.936Z,88.60
2019-05-05T05:57:40.206Z,87.60
2019-05-05T06:00:08.532Z,88.40
2019-05-05T06:02:36.798Z,87.50
2019-05-05T06:05:05.700Z,87.60
2019-05-05T06:07:33.947Z,88.00
2019-05-05T06:10:03.753Z,87.60
2019-05-05T06:12:33.666Z,89.00
2019-05-05T06:15:03.834Z,87.40
2019-05-05T06:17:34.152Z,88.10
2019-05-05T06:20:03.919Z,86.80
2019-05-05T06:22:34.158Z,86.80
2019-05-05T06:25:02.007Z,86.50
2019-05-05T06:27:30.300Z,85.50
2019-05-05T06:29:58.521Z,87.00
2019-05-05T06:32:26.778Z,86.00
2019-05-05T06:34:55.022Z,86.50
2019-05-05T06:37:23.806Z,86.50
2019-05-05T06:39:54.420Z,86.10
2019-05-05T06:42:27.172Z,85.50
2019-05-05T06:44:57.039Z,85.20
2019-05-05T06:47:26.479Z,86.00
2019-05-05T06:49:54.722Z,84.80
2019-05-05T06:52:24.738Z,84.30
2019-05-05T06:54:54.303Z,84.70
2019-05-05T06:57:24.049Z,85.90
2019-05-05T06:59:54.241Z,85.60
2019-05-05T07:02:23.794Z,85.00
2019-05-05T07:04:52.169Z,84.40
2019-05-05T07:07:20.423Z,84.40
2019-05-05T07:09:48.677Z,85.40
2019-05-05T07:12:16.920Z,83.60
2019-05-05T07:14:45.197Z,84.40
2019-05-05T07:17:14.107Z,85.00
2019-05-05T07:19:44.711Z,83.30
2019-05-05T07:22:14.041Z,82.80
2019-05-05T07:24:43.621Z,83.20
2019-05-05T07:27:13.865Z,83.20
2019-05-05T07:29:43.657Z,83.30
2019-05-05T07:32:13.965Z,81.10
2019-05-05T07:34:54.482Z,79.40
2019-05-05T07:37:23.805Z,80.30
2019-05-05T07:39:54.018Z,79.80
2019-05-05T07:42:24.243Z,79.00
2019-05-05T07:44:54.531Z,78.90
2019-05-05T07:47:23.813Z,78.10
2019-05-05T07:49:53.524Z,78.30
2019-05-05T07:52:23.713Z,78.60
2019-05-05T07:54:52.002Z,77.80
2019-05-05T07:57:20.250Z,78.20
2019-05-05T07:59:48.518Z,78.20
2019-05-05T08:02:16.749Z,78.30
2019-05-05T08:04:47.673Z,76.00
2019-05-05T08:07:15.896Z,76.20
2019-05-05T08:09:44.583Z,76.50
2019-05-05T08:12:13.740Z,76.10
2019-05-05T08:14:44.245Z,77.00
2019-05-05T08:17:16.533Z,77.10
2019-05-05T08:19:46.433Z,75.60
2019-05-05T08:22:14.760Z,76.60
2019-05-05T08:27:46.438Z,77.20
2019-05-05T08:30:24.299Z,76.80
2019-05-05T08:32:54.523Z,76.30
2019-05-05T08:35:23.781Z,76.10
2019-05-05T08:37:54.170Z,75.00
2019-05-05T08:40:23.959Z,74.00
2019-05-05T08:42:53.892Z,75.20
2019-05-05T08:45:26.167Z,74.30
2019-05-05T08:47:54.176Z,75.60
2019-05-05T08:50:26.296Z,74.60
2019-05-05T08:52:53.735Z,74.10
2019-05-05T08:55:24.452Z,73.80
2019-05-05T08:57:53.974Z,74.20
2019-05-05T09:00:24.429Z,73.40
2019-05-05T09:02:54.303Z,73.50
2019-05-05T09:05:23.830Z,71.80
2019-05-05T09:07:54.508Z,72.10
2019-05-05T09:10:23.658Z,70.70
2019-05-05T09:12:54.129Z,69.20
2019-05-05T09:15:24.140Z,69.20
2019-05-05T09:17:54.242Z,68.60
2019-05-05T09:20:24.053Z,70.50
2019-05-05T09:22:53.559Z,69.80
2019-05-05T09:25:26.575Z,68.80
2019-05-05T09:28:03.931Z,68.50
2019-05-05T09:30:40.575Z,69.40
2019-05-05T09:33:08.820Z,69.10
2019-05-05T09:35:37.048Z,71.10
2019-05-05T09:38:05.291Z,68.60
2019-05-05T09:40:38.785Z,68.60
2019-05-05T09:43:07.773Z,66.30
2019-05-05T09:45:37.053Z,67.60
2019-05-05T09:48:05.374Z,67.20
2019-05-05T09:50:34.219Z,68.40
2019-05-05T09:53:04.175Z,64.60
2019-05-05T09:55:33.585Z,66.00
2019-05-05T09:58:01.937Z,66.60
2019-05-05T10:00:33.590Z,62.20
2019-05-05T10:03:03.675Z,61.70
2019-05-05T10:05:31.759Z,59.60
2019-05-05T10:08:00.050Z,58.80
2019-05-05T10:10:28.356Z,58.10
2019-05-05T10:12:56.607Z,55.70
2019-05-05T10:15:24.838Z,57.50
2019-05-05T10:17:54.149Z,60.30
2019-05-05T10:20:23.631Z,58.70
2019-05-05T10:22:53.795Z,59.20
2019-05-05T10:25:38.915Z,57.20
2019-05-05T10:30:37.136Z,58.90
2019-05-05T10:33:05.372Z,59.20
2019-05-05T10:35:34.498Z,56.20
2019-05-05T10:38:02.879Z,55.40
2019-05-05T10:40:33.876Z,55.90
2019-05-05T10:43:04.199Z,57.30
2019-05-05T10:45:32.382Z,57.60
2019-05-05T10:48:00.609Z,59.10
2019-05-05T10:50:28.872Z,59.80
2019-05-05T10:52:57.310Z,58.50
2019-05-05T10:55:25.585Z,57.30
2019-05-05T10:57:54.368Z,57.10
2019-05-05T11:00:47.074Z,56.60
2019-05-05T11:03:15.570Z,56.80
2019-05-05T11:05:45.022Z,57.90
2019-05-05T11:08:13.733Z,58.20
2019-05-05T11:10:44.534Z,58.00
2019-05-05T11:13:12.137Z,57.50
2019-05-05T11:15:40.403Z,57.00
2019-05-05T11:18:08.648Z,56.90
2019-05-05T11:20:36.905Z,57.60
2019-05-05T11:23:05.155Z,54.70
2019-05-05T11:25:33.849Z,52.10
2019-05-05T11:28:03.759Z,53.10
2019-05-05T11:30:35.196Z,53.70
2019-05-05T11:33:23.602Z,53.30
2019-05-05T11:36:13.484Z,52.10
2019-05-05T11:38:41.800Z,50.00
2019-05-05T11:41:10.774Z,52.50
2019-05-05T11:43:39.033Z,53.40
2019-05-05T11:46:07.329Z,55.30
2019-05-05T11:48:35.614Z,54.40
2019-05-05T11:51:04.474Z,55.50
2019-05-05T11:53:34.000Z,56.30
2019-05-05T11:56:04.159Z,59.20
2019-05-05T11:58:34.101Z,60.10
2019-05-05T12:01:03.719Z,63.10
2019-05-05T12:03:33.978Z,64.90
2019-05-05T12:06:03.996Z,66.50
2019-05-05T12:08:34.318Z,65.40
2019-05-05T12:11:04.630Z,63.60
2019-05-05T12:13:33.077Z,60.00
2019-05-05T12:16:04.566Z,56.30
2019-05-05T12:18:34.306Z,61.10
2019-05-05T12:21:04.857Z,58.50
2019-05-05T12:23:33.978Z,59.20
2019-05-05T12:26:04.737Z,58.60
2019-05-05T12:28:40.900Z,57.40
2019-05-05T12:31:14.170Z,57.80
2019-05-05T12:33:44.211Z,57.20
2019-05-05T12:36:14.905Z,56.50
2019-05-05T12:38:43.930Z,56.60
2019-05-05T12:41:14.601Z,57.90
2019-05-05T12:43:44.145Z,58.70
2019-05-05T12:46:20.342Z,56.70
2019-05-05T12:48:50.279Z,56.80
2019-05-05T12:51:18.514Z,59.90
2019-05-05T12:53:46.847Z,58.90
2019-05-05T12:56:15.091Z,55.10
2019-05-05T12:58:44.036Z,55.50
2019-05-05T13:01:16.483Z,54.00
2019-05-05T13:03:44.745Z,53.20
2019-05-05T13:06:14.598Z,51.70
2019-05-05T13:08:44.498Z,51.00
2019-05-05T13:11:13.028Z,50.80
2019-05-05T13:13:41.318Z,48.60
2019-05-05T13:16:09.565Z,49.10
2019-05-05T13:18:38.040Z,50.60
2019-05-05T13:21:07.954Z,51.00
2019-05-05T13:23:50.016Z,53.70
2019-05-05T13:26:19.939Z,53.40
2019-05-05T13:28:48.224Z,51.40
2019-05-05T13:31:16.494Z,52.40
2019-05-05T13:33:44.738Z,50.90
2019-05-05T13:36:13.741Z,51.60
2019-05-05T13:38:43.853Z,54.40
2019-05-05T13:41:12.290Z,55.30
2019-05-05T13:43:40.523Z,55.20
2019-05-05T13:46:24.573Z,54.50
2019-05-05T13:48:53.900Z,51.00
2019-05-05T13:51:24.026Z,54.10
2019-05-05T13:53:53.958Z,52.00
2019-05-05T13:56:24.376Z,52.30
2019-05-05T13:58:52.582Z,47.90
2019-05-05T14:01:20.859Z,49.10
2019-05-05T14:03:49.099Z,49.30
2019-05-05T14:06:17.364Z,48.40
2019-05-05T14:08:45.606Z,46.80
2019-05-05T14:11:14.283Z,46.80
2019-05-05T14:13:45.508Z,47.80
2019-05-05T14:16:14.342Z,45.00
2019-05-05T14:18:42.800Z,46.30
2019-05-05T14:21:11.089Z,46.40
2019-05-05T14:23:59.285Z,46.30
2019-05-05T14:26:28.585Z,46.20
2019-05-05T14:28:57.540Z,44.90
2019-05-05T14:31:27.466Z,45.00
2019-05-05T14:33:57.359Z,46.40
2019-05-05T14:36:36.195Z,46.00
2019-05-05T14:39:07.957Z,46.20
2019-05-05T14:41:36.215Z,47.20
2019-05-05T14:44:04.507Z,45.30
2019-05-05T14:46:34.067Z,45.60
2019-05-05T14:49:05.436Z,46.90
2019-05-05T14:51:34.177Z,46.60
2019-05-05T14:54:04.514Z,45.60
2019-05-05T14:56:36.579Z,45.20
2019-05-05T14:59:03.735Z,46.30
2019-05-05T15:01:34.233Z,45.10
2019-05-05T15:04:04.110Z,46.80
2019-05-05T15:06:39.756Z,46.40
2019-05-05T15:09:09.653Z,44.70
2019-05-05T15:11:39.577Z,44.30
2019-05-05T15:14:07.817Z,46.10
2019-05-05T15:16:36.058Z,47.80
2019-05-05T15:19:04.328Z,48.40
2019-05-05T15:21:34.004Z,46.10
2019-05-05T15:24:02.418Z,45.90
2019-05-05T15:26:30.661Z,45.70
2019-05-05T15:29:01.648Z,47.00
2019-05-05T15:31:29.596Z,46.20
2019-05-05T15:33:57.870Z,46.10
2019-05-05T15:36:26.230Z,45.90
2019-05-05T15:38:55.222Z,46.30
2019-05-05T15:41:23.708Z,47.00
2019-05-05T15:43:57.328Z,47.40
2019-05-05T15:46:25.676Z,42.20
2019-05-05T15:48:54.599Z,42.50
2019-05-05T15:51:23.717Z,42.90
2019-05-05T15:53:54.108Z,41.90
2019-05-05T15:56:22.145Z,44.20
2019-05-05T15:58:50.420Z,43.90
2019-05-05T16:01:18.670Z,44.80
2019-05-05T16:03:46.911Z,45.90
2019-05-05T16:06:15.186Z,45.50
2019-05-05T16:08:44.566Z,45.10
2019-05-05T16:11:14.238Z,43.00
2019-05-05T16:13:43.988Z,42.00
2019-05-05T16:16:14.665Z,41.00
2019-05-05T16:18:48.647Z,44.10
2019-05-05T16:21:23.618Z,43.50
2019-05-05T16:24:03.559Z,47.60
2019-05-05T16:26:31.890Z,44.90
2019-05-05T16:29:00.141Z,45.10
2019-05-05T16:31:28.421Z,44.20
2019-05-05T16:33:56.665Z,43.00
2019-05-05T16:36:24.931Z,44.10
2019-05-05T16:38:53.163Z,46.80
2019-05-05T16:41:21.453Z,48.70
2019-05-05T16:43:49.681Z,43.10
2019-05-05T16:46:17.966Z,44.20
2019-05-05T16:48:46.201Z,44.50
2019-05-05T16:51:16.101Z,46.00
2019-05-05T16:53:44.340Z,45.60
2019-05-05T16:56:14.269Z,44.70
2019-05-05T16:58:42.517Z,44.40
2019-05-05T17:01:14.216Z,46.10
2019-05-05T17:03:45.366Z,46.00
2019-05-05T17:06:13.997Z,46.60
2019-05-05T17:08:44.190Z,47.70
2019-05-05T17:11:12.437Z,48.30
2019-05-05T17:13:45.049Z,48.30
2019-05-05T17:16:17.929Z,45.50
2019-05-05T17:18:47.814Z,44.90
2019-05-05T17:21:26.752Z,46.40
2019-05-05T17:23:54.999Z,46.00
2019-05-05T17:26:24.310Z,45.40
2019-05-05T17:28:54.123Z,45.40
2019-05-05T17:31:24.372Z,43.20
2019-05-05T17:33:53.600Z,42.90
2019-05-05T17:36:24.161Z,44.10
2019-05-05T17:38:54.394Z,44.40
2019-05-05T17:41:24.226Z,43.70
2019-05-05T17:44:05.999Z,44.40
2019-05-05T17:46:38.607Z,43.60
2019-05-05T17:49:26.988Z,43.80
2019-05-05T17:52:14.747Z,44.70
2019-05-05T17:54:47.617Z,47.30
2019-05-05T17:57:15.910Z,47.20
2019-05-05T17:59:44.295Z,49.40
2019-05-05T18:02:12.676Z,51.00
2019-05-05T18:05:00.389Z,53.90
2019-05-05T18:07:49.957Z,56.50
2019-05-05T18:10:24.151Z,59.30
2019-05-05T18:13:00.084Z,58.90
2019-05-05T18:15:48.285Z,59.60
2019-05-05T18:18:16.652Z,61.20
2019-05-05T18:20:45.066Z,61.60
2019-05-05T18:23:13.877Z,63.40
2019-05-05T18:25:44.072Z,62.70
2019-05-05T18:28:19.186Z,65.10
2019-05-05T18:30:44.256Z,65.00
2019-05-05T18:33:13.684Z,67.10
2019-05-05T18:35:44.230Z,67.70
2019-05-05T18:38:13.754Z,68.10
2019-05-05T18:40:43.406Z,68.30
2019-05-05T18:43:13.519Z,69.00
2019-05-05T18:45:44.017Z,69.40
2019-05-05T18:48:13.876Z,70.30
2019-05-05T18:50:41.801Z,70.60
2019-05-05T18:53:10.020Z,70.60
2019-05-05T18:55:38.269Z,70.70
2019-05-05T18:58:07.683Z,71.20
2019-05-05T19:00:54.593Z,72.00
2019-05-05T19:03:41.296Z,72.10
2019-05-05T19:06:16.765Z,72.70
2019-05-05T19:08:54.290Z,72.70
2019-05-05T19:11:16.705Z,72.70
2019-05-05T19:13:44.962Z,72.80
2019-05-05T19:16:14.225Z,73.80
2019-05-05T19:18:44.630Z,73.60
2019-05-05T19:21:20.300Z,74.20
2019-05-05T19:23:48.582Z,74.40
2019-05-05T19:26:16.840Z,74.20
2019-05-05T19:28:49.954Z,74.60
2019-05-05T19:31:15.171Z,75.20
2019-05-05T19:33:43.424Z,75.40
2019-05-05T19:36:11.680Z,74.60
2019-05-05T19:38:39.907Z,75.70
2019-05-05T19:41:08.161Z,75.70
2019-05-05T19:43:38.033Z,76.90
2019-05-05T19:46:07.945Z,76.90
2019-05-05T19:48:36.160Z,77.20
2019-05-05T19:51:06.060Z,77.20
2019-05-05T19:53:35.549Z,77.40
2019-05-05T19:56:04.202Z,78.20
2019-05-05T19:58:34.049Z,78.60
2019-05-05T20:01:04.590Z,78.50
2019-05-05T20:03:35.137Z,78.60
2019-05-05T20:06:04.774Z,78.90
2019-05-05T20:08:40.851Z,78.60
2019-05-05T20:11:04.849Z,78.40
2019-05-05T20:13:33.270Z,78.20
2019-05-05T20:16:09.269Z,79.20
2019-05-05T20:21:14.590Z,79.10
2019-05-05T20:23:43.671Z,79.70
2019-05-05T20:26:14.380Z,79.40
2019-05-05T20:28:42.143Z,79.60
2019-05-05T20:31:10.369Z,79.50
2019-05-05T20:33:40.267Z,79.50
2019-05-05T20:36:16.145Z,79.90
2019-05-05T20:38:48.460Z,80.00
2019-05-05T20:41:18.376Z,79.80
2019-05-05T20:43:46.636Z,79.60
2019-05-05T20:46:14.954Z,79.00
2019-05-05T20:48:44.831Z,79.60
2019-05-05T20:51:13.756Z,79.90
2019-05-05T20:53:44.499Z,79.40
2019-05-05T20:56:12.242Z,78.90
2019-05-05T20:58:40.525Z,78.30
2019-05-05T21:01:08.779Z,77.90
2019-05-05T21:03:37.102Z,78.30
2019-05-05T21:06:05.333Z,78.10
2019-05-05T21:08:53.012Z,78.60
2019-05-05T21:11:21.254Z,79.30
2019-05-05T21:13:49.519Z,79.80
2019-05-05T21:16:17.754Z,80.00
2019-05-05T21:18:46.000Z,80.10
2019-05-05T21:21:15.860Z,80.20
2019-05-05T21:23:45.768Z,79.80
2019-05-05T21:26:15.643Z,81.00
2019-05-05T21:28:44.475Z,80.70
2019-05-05T21:31:14.482Z,80.20
2019-05-05T21:33:45.085Z,80.30
2019-05-05T21:36:14.694Z,79.90
2019-05-05T21:38:43.896Z,79.80
2019-05-05T21:41:13.787Z,81.30
2019-05-05T21:43:42.296Z,80.80
2019-05-05T21:46:10.564Z,80.90
2019-05-05T21:48:38.802Z,80.50
2019-05-05T21:51:11.398Z,80.40
2019-05-05T21:53:53.230Z,80.40
2019-05-05T21:56:24.845Z,80.70
2019-05-05T21:58:53.798Z,80.90
2019-05-05T22:01:26.332Z,81.20
2019-05-05T22:03:53.822Z,81.20
2019-05-05T22:06:24.067Z,81.60
2019-05-05T22:08:53.747Z,81.60
2019-05-05T22:11:24.098Z,81.70
2019-05-05T22:13:54.071Z,81.80
2019-05-05T22:16:22.608Z,82.10
2019-05-05T22:18:50.831Z,82.30
2019-05-05T22:21:20.761Z,82.40
2019-05-05T22:24:06.654Z,82.20
2019-05-05T22:26:34.911Z,82.20
2019-05-05T22:29:04.856Z,82.40
2019-05-05T22:31:34.578Z,82.40
2019-05-05T22:34:03.620Z,82.30
2019-05-05T22:36:33.856Z,82.40
2019-05-05T22:39:02.372Z,82.50
2019-05-05T22:41:30.630Z,83.30
2019-05-05T22:43:58.849Z,83.40
2019-05-05T22:46:30.020Z,83.20
2019-05-05T22:48:58.249Z,83.40
2019-05-05T22:51:26.497Z,83.40
2019-05-05T22:53:54.875Z,83.20
2019-05-05T22:56:24.121Z,83.40
2019-05-05T22:58:54.568Z,83.60
2019-05-05T23:01:24.127Z,83.60
2019-05-05T23:03:59.750Z,83.60
2019-05-05T23:06:43.704Z,83.50
2019-05-05T23:09:14.831Z,83.70
2019-05-05T23:11:44.039Z,84.00
2019-05-05T23:14:27.521Z,84.00
2019-05-05T23:17:13.997Z,83.90
2019-05-05T23:19:46.902Z,83.70
2019-05-05T23:22:16.792Z,83.80
2019-05-05T23:24:46.660Z,83.60
2019-05-05T23:27:35.050Z,83.60
2019-05-05T23:30:04.245Z,83.90
2019-05-05T23:32:34.166Z,84.60
2019-05-05T23:35:02.511Z,84.80
2019-05-05T23:37:30.836Z,84.20
2019-05-05T23:39:59.061Z,84.30
2019-05-05T23:42:27.305Z,84.70
2019-05-05T23:44:55.531Z,84.60
2019-05-05T23:47:24.779Z,84.30
2019-05-05T23:49:53.752Z,84.20
2019-05-05T23:52:23.992Z,84.30
2019-05-05T23:54:52.166Z,84.40
2019-05-05T23:57:20.414Z,84.50
2019-05-05T23:59:48.657Z,84.90
